Time;durP1;ratioP1;P1;durP2;ratioP2;P2;SDS_P1;SDS_P2;PMS_P1;PMS_P2;Temp;Humidity;BMP_temperature;BMP_pressure;BME280_temperature;BME280_humidity;BME280_pressure;Samples;Min_cycle;Max_cycle;Signal;HPM_P1;HPM_P2
2023/07/21 00:01:47;;;;;;;;;;;;;;;19.88;77.74;100717.56;107637;1251;113530;-60
2023/07/21 00:04:17;;;;;;;;;;;;;;;19.85;77.59;100715.02;107661;1251;109698;-61
2023/07/21 00:06:45;;;;;;;;;;;;;;;19.86;77.29;100714.09;107649;1251;108663;-64
2023/07/21 00:09:14;;;;;;;;;;;;;;;19.90;77.44;100711.60;107656;1251;99300;-60
2023/07/21 00:11:42;;;;;;;;;;;;;;;19.92;77.55;100709.57;107538;1253;99042;-60
2023/07/21 00:14:10;;;;;;;;;;;;;;;19.94;77.61;100717.27;107549;1253;112192;-60
2023/07/21 00:16:39;;;;;;;;;;;;;;;19.97;77.48;100714.52;107564;1251;109533;-60
2023/07/21 00:19:07;;;;;;;;;;;;;;;19.99;77.32;100717.93;107568;1253;107374;-60
2023/07/21 00:21:35;;;;;;;;;;;;;;;19.99;77.22;100722.60;107546;1251;99172;-61
2023/07/21 00:24:04;;;;;;;;;;;;;;;19.98;76.96;100716.71;107571;1250;99173;-61
2023/07/21 00:26:35;;;;;;;;;;;;;;;19.95;76.71;100720.26;107623;1253;112778;-60
2023/07/21 00:29:03;;;;;;;;;;;;;;;19.91;77.05;100723.46;107552;1251;109580;-60
2023/07/21 00:31:32;;;;;;;;;;;;;;;19.83;77.24;100723.72;107565;1256;107802;-61
2023/07/21 00:34:00;;;;;;;;;;;;;;;19.78;77.14;100725.52;107503;1251;99189;-62
2023/07/21 00:36:28;;;;;;;;;;;;;;;19.73;77.54;100727.25;107716;1251;99207;-60
2023/07/21 00:38:58;;;;;;;;;;;;;;;19.72;77.38;100730.09;107584;1251;113219;-59
2023/07/21 00:41:26;;;;;;;;;;;;;;;19.73;77.28;100726.70;107620;1251;109648;-60
2023/07/21 00:43:55;;;;;;;;;;;;;;;19.74;77.19;100730.11;107629;1251;106716;-60
2023/07/21 00:46:23;;;;;;;;;;;;;;;19.74;77.23;100730.95;107691;1249;99375;-60
2023/07/21 00:48:52;;;;;;;;;;;;;;;19.71;77.49;100733.70;107587;1251;99051;-60
2023/07/21 00:51:22;;;;;;;;;;;;;;;19.69;77.47;100735.31;107511;1251;113265;-59
2023/07/21 00:53:51;;;;;;;;;;;;;;;19.70;77.52;100733.06;107634;1254;109792;-61
2023/07/21 00:56:19;;;;;;;;;;;;;;;19.69;77.33;100734.64;107651;1250;107614;-61
2023/07/21 00:58:48;;;;;;;;;;;;;;;19.68;77.34;100737.00;107692;1251;99164;-60
2023/07/21 01:01:16;;;;;;;;;;;;;;;19.66;77.41;100737.98;107659;1250;99160;-62
2023/07/21 01:03:44;;;;;;;;;;;;;;;19.60;77.34;100738.68;107567;1251;113324;-60
2023/07/21 01:06:13;;;;;;;;;;;;;;;19.57;77.76;100739.88;107658;1251;108698;-61
2023/07/21 01:08:41;;;;;;;;;;;;;;;19.50;77.80;100742.33;107634;1250;108262;-60
2023/07/21 01:11:10;;;;;;;;;;;;;;;19.46;78.37;100743.47;107548;1251;99178;-61
2023/07/21 01:13:40;;;;;;;;;;;;;;;19.40;78.13;100741.48;107740;1256;99226;-60
2023/07/21 01:16:11;;;;;;;;;;;;;;;19.33;78.26;100745.03;107592;1250;113688;-62
2023/07/21 01:18:41;;;;;;;;;;;;;;;19.30;78.04;100745.79;107599;1250;109681;-60
2023/07/21 01:21:12;;;;;;;;;;;;;;;19.28;78.03;100749.10;107558;1252;107627;-60
2023/07/21 01:23:56;;;;;;;;;;;;;;;19.29;78.51;100747.75;107712;1250;99054;-60
2023/07/21 01:26:25;;;;;;;;;;;;;;;19.25;78.82;100743.98;107674;1251;99054;-61
2023/07/21 01:28:54;;;;;;;;;;;;;;;19.24;78.72;100751.23;107673;1251;112335;-60
2023/07/21 01:31:23;;;;;;;;;;;;;;;19.22;78.85;100752.06;107728;1251;109713;-60
2023/07/21 01:33:55;;;;;;;;;;;;;;;19.18;79.08;100753.40;107545;1251;107838;-60
2023/07/21 01:36:23;;;;;;;;;;;;;;;19.14;78.88;100756.16;107666;1256;99275;-62
2023/07/21 01:38:53;;;;;;;;;;;;;;;19.13;78.66;100757.75;107563;1251;99234;-59
2023/07/21 01:41:22;;;;;;;;;;;;;;;19.12;78.65;100759.37;107633;1250;112542;-61
2023/07/21 01:43:50;;;;;;;;;;;;;;;19.09;78.66;100761.45;107759;1250;108595;-62
2023/07/21 01:46:18;;;;;;;;;;;;;;;19.11;78.87;100766.02;107551;1251;107152;-60
2023/07/21 01:48:47;;;;;;;;;;;;;;;19.12;78.74;100765.66;107674;1251;99159;-61
2023/07/21 01:51:19;;;;;;;;;;;;;;;19.11;78.35;100767.41;107621;1251;99262;-59
2023/07/21 01:54:08;;;;;;;;;;;;;;;19.11;78.52;100764.69;107585;1250;112750;-62
2023/07/21 01:56:40;;;;;;;;;;;;;;;19.09;78.34;100765.89;107574;1251;109108;-62
2023/07/21 01:59:10;;;;;;;;;;;;;;;19.10;78.66;100770.83;107667;1250;108837;-61
2023/07/21 02:01:39;;;;;;;;;;;;;;;19.10;78.51;100773.15;107694;1251;99163;-61
2023/07/21 02:04:08;;;;;;;;;;;;;;;19.09;78.51;100775.33;107547;1250;99133;-59
2023/07/21 02:06:36;;;;;;;;;;;;;;;19.05;78.47;100775.53;107695;1251;114410;-59
2023/07/21 02:09:04;;;;;;;;;;;;;;;19.04;78.47;100782.31;107649;1251;108446;-61
2023/07/21 02:11:33;;;;;;;;;;;;;;;19.02;78.49;100783.55;107613;1255;108068;-61
2023/07/21 02:14:16;;;;;;;;;;;;;;;18.98;78.13;100788.13;107621;1251;99227;-63
2023/07/21 02:16:46;;;;;;;;;;;;;;;18.96;78.30;100797.77;107603;1251;99040;-60
2023/07/21 02:19:14;;;;;;;;;;;;;;;18.96;78.43;100795.01;107699;1256;112703;-60
2023/07/21 02:21:42;;;;;;;;;;;;;;;18.93;78.37;100800.38;107750;1250;109795;-62
2023/07/21 02:24:10;;;;;;;;;;;;;;;18.91;78.33;100798.27;107583;1253;108183;-64
2023/07/21 02:26:39;;;;;;;;;;;;;;;18.87;77.90;100805.64;107560;1250;99162;-60
2023/07/21 02:29:10;;;;;;;;;;;;;;;18.82;77.82;100806.59;107771;1249;99105;-60
2023/07/21 02:31:38;;;;;;;;;;;;;;;18.77;78.17;100810.30;107557;1250;113314;-61
2023/07/21 02:34:07;;;;;;;;;;;;;;;18.73;78.38;100818.89;107621;1253;109663;-60
2023/07/21 02:36:36;;;;;;;;;;;;;;;18.73;78.38;100824.89;107643;1253;107979;-60
2023/07/21 02:39:04;;;;;;;;;;;;;;;18.75;78.57;100823.70;107599;1250;99139;-62
2023/07/21 02:41:33;;;;;;;;;;;;;;;18.77;78.55;100829.69;107535;1250;99275;-61
2023/07/21 02:44:00;;;;;;;;;;;;;;;18.76;78.35;100828.33;107577;1250;112558;-60
2023/07/21 02:46:29;;;;;;;;;;;;;;;18.78;78.35;100833.25;107563;1251;109358;-60
2023/07/21 02:48:58;;;;;;;;;;;;;;;18.79;78.22;100832.59;107528;1251;108205;-59
2023/07/21 02:51:26;;;;;;;;;;;;;;;18.75;77.89;100833.59;107516;1249;99192;-61
2023/07/21 02:53:54;;;;;;;;;;;;;;;18.73;77.93;100834.69;107759;1250;99243;-60
2023/07/21 02:56:22;;;;;;;;;;;;;;;18.70;78.17;100836.75;107535;1251;112867;-59
2023/07/21 02:59:00;;;;;;;;;;;;;;;18.68;78.06;100836.39;107712;1251;109967;-59
2023/07/21 03:01:30;;;;;;;;;;;;;;;18.68;78.08;100842.67;107628;1251;106936;-60
2023/07/21 03:03:58;;;;;;;;;;;;;;;18.66;77.87;100843.81;107594;1251;99271;-59
2023/07/21 03:06:30;;;;;;;;;;;;;;;18.62;77.82;100849.91;107649;1251;99154;-59
2023/07/21 03:08:59;;;;;;;;;;;;;;;18.58;77.83;100849.45;107628;1251;113204;-61
2023/07/21 03:11:29;;;;;;;;;;;;;;;18.57;78.06;100853.74;107603;1250;109929;-58
2023/07/21 03:14:10;;;;;;;;;;;;;;;18.56;78.49;100863.30;107671;1250;108241;-60
2023/07/21 03:16:40;;;;;;;;;;;;;;;18.57;78.86;100866.61;107610;1251;99137;-61
2023/07/21 03:19:09;;;;;;;;;;;;;;;18.57;78.55;100869.02;107657;1251;99176;-61
2023/07/21 03:21:39;;;;;;;;;;;;;;;18.58;78.83;100871.09;107600;1251;113006;-61
2023/07/21 03:24:08;;;;;;;;;;;;;;;18.58;78.69;100875.61;107531;1251;108872;-59
2023/07/21 03:26:37;;;;;;;;;;;;;;;18.60;78.99;100875.92;107639;1251;108118;-62
2023/07/21 03:29:06;;;;;;;;;;;;;;;18.62;78.99;100882.98;107659;1251;99298;-61
2023/07/21 03:31:35;;;;;;;;;;;;;;;18.61;79.09;100880.10;107572;1251;99218;-62
2023/07/21 03:34:10;;;;;;;;;;;;;;;18.62;79.16;100885.88;107635;1251;113638;-61
2023/07/21 03:36:39;;;;;;;;;;;;;;;18.63;78.96;100891.94;107596;1251;109630;-61
2023/07/21 03:39:07;;;;;;;;;;;;;;;18.64;78.86;100895.09;107556;1251;108271;-60
2023/07/21 03:41:36;;;;;;;;;;;;;;;18.69;78.79;100901.41;107509;1251;99238;-60
2023/07/21 03:44:04;;;;;;;;;;;;;;;18.75;78.97;100897.31;107729;1251;99836;-60
2023/07/21 03:46:33;;;;;;;;;;;;;;;18.81;78.98;100898.98;107616;1251;113635;-62
2023/07/21 03:49:36;;;;;;;;;;;;;;;18.86;78.84;100900.54;107233;1257;110054;-60
2023/07/21 03:52:08;;;;;;;;;;;;;;;18.91;78.58;100905.05;107556;1251;107716;-60
2023/07/21 03:54:37;;;;;;;;;;;;;;;18.98;78.51;100909.28;107616;1251;99351;-60
2023/07/21 03:57:05;;;;;;;;;;;;;;;19.07;78.70;100913.34;107619;1251;99111;-60
2023/07/21 03:59:34;;;;;;;;;;;;;;;19.16;78.76;100918.81;107583;1251;112995;-61
2023/07/21 04:02:03;;;;;;;;;;;;;;;19.22;78.47;100918.73;107643;1251;109600;-61
2023/07/21 04:04:33;;;;;;;;;;;;;;;19.23;77.91;100922.94;107665;1251;106747;-61
2023/07/21 04:07:05;;;;;;;;;;;;;;;19.20;77.32;100924.26;107577;1251;99298;-62
2023/07/21 04:09:33;;;;;;;;;;;;;;;19.18;77.28;100926.04;107609;1256;99052;-61
2023/07/21 04:12:02;;;;;;;;;;;;;;;19.20;77.23;100925.26;107626;1252;113608;-60
2023/07/21 04:14:30;;;;;;;;;;;;;;;19.23;77.16;100921.48;107694;1251;109961;-60
2023/07/21 04:16:58;;;;;;;;;;;;;;;19.30;77.08;100924.14;107689;1250;108107;-59
2023/07/21 04:19:26;;;;;;;;;;;;;;;19.39;77.14;100929.80;107703;1249;99225;-61
2023/07/21 04:21:55;;;;;;;;;;;;;;;19.47;76.95;100928.98;107554;1251;99090;-61
2023/07/21 04:24:24;;;;;;;;;;;;;;;19.54;76.78;100930.77;107576;1250;113012;-60
2023/07/21 04:26:53;;;;;;;;;;;;;;;19.58;76.34;100932.52;107632;1253;109960;-60
2023/07/21 04:29:22;;;;;;;;;;;;;;;19.58;76.35;100936.86;107639;1251;108254;-60
2023/07/21 04:32:04;;;;;;;;;;;;;;;19.58;76.11;100938.74;107625;1251;100022;-59
2023/07/21 04:34:34;;;;;;;;;;;;;;;19.61;76.21;100938.86;107637;1250;99083;-61
2023/07/21 04:37:04;;;;;;;;;;;;;;;19.66;76.10;100936.74;107629;1251;112430;-61
2023/07/21 04:39:35;;;;;;;;;;;;;;;19.70;75.68;100937.78;107577;1251;109686;-62
2023/07/21 04:42:04;;;;;;;;;;;;;;;19.65;74.65;100941.38;107637;1251;108103;-61
2023/07/21 04:44:32;;;;;;;;;;;;;;;19.54;74.56;100945.13;107622;1251;99211;-60
2023/07/21 04:47:04;;;;;;;;;;;;;;;19.49;75.08;100946.06;107603;1251;99296;-63
2023/07/21 04:49:39;;;;;;;;;;;;;;;19.49;75.59;100950.09;107658;1251;113511;-61
2023/07/21 04:52:08;;;;;;;;;;;;;;;19.42;74.69;100949.92;107692;1251;108046;-63
2023/07/21 04:54:38;;;;;;;;;;;;;;;19.38;74.90;100950.45;107582;1251;107838;-62
2023/07/21 04:57:08;;;;;;;;;;;;;;;19.37;74.83;100954.90;107627;1251;99157;-62
2023/07/21 04:59:36;;;;;;;;;;;;;;;19.38;74.78;100959.15;107694;1251;99218;-60
2023/07/21 05:02:04;;;;;;;;;;;;;;;19.35;74.88;100958.41;107577;1251;112415;-63
2023/07/21 05:04:33;;;;;;;;;;;;;;;19.35;75.18;100957.14;107627;1251;109694;-62
2023/07/21 05:07:01;;;;;;;;;;;;;;;19.36;75.33;100960.33;107579;1251;108203;-61
2023/07/21 05:09:29;;;;;;;;;;;;;;;19.35;75.67;100959.19;107674;1249;99221;-61
2023/07/21 05:11:59;;;;;;;;;;;;;;;19.36;75.66;100962.65;107573;1251;99191;-61
2023/07/21 05:14:46;;;;;;;;;;;;;;;19.40;76.38;100964.41;107598;1252;113372;-61
2023/07/21 05:17:34;;;;;;;;;;;;;;;19.39;76.21;100963.19;107617;1251;109980;-61
2023/07/21 05:20:24;;;;;;;;;;;;;;;19.39;76.14;100959.58;107623;1253;108208;-62
2023/07/21 05:23:18;;;;;;;;;;;;;;;19.40;75.80;100962.87;107609;1251;99183;-63
2023/07/21 05:26:00;;;;;;;;;;;;;;;19.50;76.42;100967.02;107627;1251;99160;-60
2023/07/21 05:28:35;;;;;;;;;;;;;;;19.58;76.73;100967.24;107639;1251;112593;-63
2023/07/21 05:31:03;;;;;;;;;;;;;;;19.65;76.33;100967.80;107608;1251;109903;-61
2023/07/21 05:34:01;;;;;;;;;;;;;;;19.73;76.03;100966.59;107459;1251;107560;-61
2023/07/21 05:36:31;;;;;;;;;;;;;;;19.80;76.07;100970.19;107700;1251;99086;-60
2023/07/21 05:38:59;;;;;;;;;;;;;;;19.85;76.23;100969.38;107753;1251;99840;-61
2023/07/21 05:41:28;;;;;;;;;;;;;;;19.92;76.14;100964.35;107521;1250;112987;-61
2023/07/21 05:43:58;;;;;;;;;;;;;;;19.97;75.99;100966.79;107540;1251;109954;-63
2023/07/21 05:46:27;;;;;;;;;;;;;;;20.03;75.70;100968.08;107597;1251;108233;-62
2023/07/21 05:49:07;;;;;;;;;;;;;;;20.09;75.68;100968.55;107569;1251;99129;-61
2023/07/21 05:51:36;;;;;;;;;;;;;;;20.16;75.56;100973.20;107599;1251;99172;-61
2023/07/21 05:54:14;;;;;;;;;;;;;;;20.23;75.69;100973.06;107640;1251;112779;-62
2023/07/21 05:56:42;;;;;;;;;;;;;;;20.26;75.50;100972.16;107610;1251;109214;-62
2023/07/21 05:59:20;;;;;;;;;;;;;;;20.29;74.53;100973.92;107579;1251;108431;-62
2023/07/21 06:01:48;;;;;;;;;;;;;;;20.27;73.84;100977.80;107611;1251;99061;-62
2023/07/21 06:04:16;;;;;;;;;;;;;;;20.29;73.89;100974.47;107673;1251;99170;-61
2023/07/21 06:06:56;;;;;;;;;;;;;;;20.36;73.99;100975.54;107672;1251;113196;-61
2023/07/21 06:09:47;;;;;;;;;;;;;;;20.43;74.30;100981.40;107462;1251;109448;-63
2023/07/21 06:12:31;;;;;;;;;;;;;;;20.51;74.24;100982.02;107589;1251;107145;-63
2023/07/21 06:15:25;;;;;;;;;;;;;;;20.58;74.05;100980.45;107454;1254;99259;-61
2023/07/21 06:17:56;;;;;;;;;;;;;;;20.64;73.93;100982.77;107606;1253;99538;-62
2023/07/21 06:20:26;;;;;;;;;;;;;;;20.70;73.74;100981.45;107635;1251;113120;-64
2023/07/21 06:22:56;;;;;;;;;;;;;;;20.73;73.19;100980.70;107566;1251;108349;-65
2023/07/21 06:25:25;;;;;;;;;;;;;;;20.76;73.06;100987.25;107635;1251;107508;-64
2023/07/21 06:28:01;;;;;;;;;;;;;;;20.82;72.97;100993.41;107595;1251;99196;-62
2023/07/21 06:30:30;;;;;;;;;;;;;;;20.88;72.69;100987.48;107577;1251;99281;-62
2023/07/21 06:32:58;;;;;;;;;;;;;;;20.93;72.44;100988.55;107658;1255;113025;-62
2023/07/21 06:35:50;;;;;;;;;;;;;;;21.01;71.63;100990.13;107361;1253;109581;-61
2023/07/21 06:38:35;;;;;;;;;;;;;;;21.07;71.05;100988.98;107620;1254;108240;-61
2023/07/21 06:41:09;;;;;;;;;;;;;;;21.12;70.71;100992.04;107573;1251;99361;-62
2023/07/21 06:44:10;;;;;;;;;;;;;;;21.20;70.11;100989.52;107362;1256;99514;-61
2023/07/21 06:46:58;;;;;;;;;;;;;;;21.27;69.96;100991.39;107644;1251;113250;-61
2023/07/21 06:49:55;;;;;;;;;;;;;;;21.38;70.23;100993.63;107269;1251;110066;-62
2023/07/21 06:52:28;;;;;;;;;;;;;;;21.49;69.46;100995.95;107670;1251;109206;-61
2023/07/21 06:54:58;;;;;;;;;;;;;;;21.54;69.13;100997.12;107634;1251;99208;-60
2023/07/21 06:57:27;;;;;;;;;;;;;;;21.58;68.65;100995.48;107637;1251;99048;-62
2023/07/21 06:59:55;;;;;;;;;;;;;;;21.65;68.60;100994.54;107698;1251;112616;-63
2023/07/21 07:02:25;;;;;;;;;;;;;;;21.73;67.99;100988.11;107512;1251;109154;-61
2023/07/21 07:04:54;;;;;;;;;;;;;;;21.84;66.46;100990.89;107603;1251;107991;-62
2023/07/21 07:07:22;;;;;;;;;;;;;;;21.94;64.77;100988.54;107555;1251;99228;-63
2023/07/21 07:09:51;;;;;;;;;;;;;;;22.05;64.33;100992.17;107717;1251;99328;-62
2023/07/21 07:12:21;;;;;;;;;;;;;;;22.13;63.97;100992.14;107562;1251;113256;-60
2023/07/21 07:14:49;;;;;;;;;;;;;;;22.24;63.25;100987.74;107503;1251;108346;-64
2023/07/21 07:17:19;;;;;;;;;;;;;;;22.38;63.81;100984.73;107599;1251;107680;-64
2023/07/21 07:19:47;;;;;;;;;;;;;;;22.51;63.53;100981.39;107630;1251;99657;-60
2023/07/21 07:22:15;;;;;;;;;;;;;;;22.62;62.84;100980.92;107561;1251;99052;-60
2023/07/21 07:24:43;;;;;;;;;;;;;;;22.68;62.22;100977.30;107611;1251;113087;-61
2023/07/21 07:27:12;;;;;;;;;;;;;;;22.69;61.71;100978.27;107608;1251;109990;-63
2023/07/21 07:29:40;;;;;;;;;;;;;;;22.72;62.12;100978.13;107674;1249;108514;-62
2023/07/21 07:32:09;;;;;;;;;;;;;;;22.82;62.84;100975.55;107537;1251;99162;-62
2023/07/21 07:34:37;;;;;;;;;;;;;;;22.93;62.89;100973.05;107656;1251;99224;-64
2023/07/21 07:37:05;;;;;;;;;;;;;;;23.05;62.66;100973.86;107600;1251;112911;-62
2023/07/21 07:39:35;;;;;;;;;;;;;;;23.14;62.64;100973.25;107636;1251;110431;-62
2023/07/21 07:42:03;;;;;;;;;;;;;;;23.22;61.85;100978.89;107626;1251;108593;-62
2023/07/21 07:44:35;;;;;;;;;;;;;;;23.23;60.90;100984.11;107621;1251;99178;-62
2023/07/21 07:47:03;;;;;;;;;;;;;;;23.24;59.92;100983.52;107588;1251;99173;-61
2023/07/21 07:49:41;;;;;;;;;;;;;;;23.33;60.23;100982.98;104280;1294;635066;-63
2023/07/21 07:52:12;;;;;;;;;;;;;;;23.36;60.10;100980.66;106670;1269;95804;-63
2023/07/21 07:54:40;;;;;;;;;;;;;;;23.44;59.73;100980.88;106653;1266;95806;-61
2023/07/21 07:57:09;;;;;;;;;;;;;;;23.51;59.33;100974.35;106633;1266;108580;-62
2023/07/21 07:59:37;;;;;;;;;;;;;;;23.60;59.03;100976.34;106586;1267;109620;-59
2023/07/21 08:02:06;;;;;;;;;;;;;;;23.70;58.07;100980.69;106656;1267;108319;-61
2023/07/21 08:04:34;;;;;;;;;;;;;;;23.79;56.18;100985.38;105890;1263;95823;-62
2023/07/21 08:07:02;;;;;;;;;;;;;;;23.83;55.45;100986.71;106740;1263;95883;-61
2023/07/21 08:09:30;;;;;;;;;;;;;;;23.87;55.03;100992.02;106742;1263;109751;-61
2023/07/21 08:11:58;;;;;;;;;;;;;;;23.90;54.35;100992.30;106774;1264;109415;-62
2023/07/21 08:14:27;;;;;;;;;;;;;;;23.90;53.17;100995.29;106767;1264;107786;-64
2023/07/21 08:16:55;;;;;;;;;;;;;;;23.92;53.15;100993.09;107592;1254;95850;-61
2023/07/21 08:19:24;;;;;;;;;;;;;;;24.04;53.44;100999.09;107643;1254;96344;-60
2023/07/21 08:21:52;;;;;;;;;;;;;;;24.18;54.04;101006.50;107609;1251;109072;-62
2023/07/21 08:24:20;;;;;;;;;;;;;;;24.28;53.55;101013.03;107629;1255;109989;-62
2023/07/21 08:26:48;;;;;;;;;;;;;;;24.28;53.59;101014.05;107641;1255;108331;-63
2023/07/21 08:29:17;;;;;;;;;;;;;;;24.35;54.26;101011.16;107664;1251;95778;-61
2023/07/21 08:31:45;;;;;;;;;;;;;;;24.45;54.26;101008.16;107624;1254;95836;-61
2023/07/21 08:34:13;;;;;;;;;;;;;;;24.56;53.47;101007.60;107659;1254;109357;-64
2023/07/21 08:36:41;;;;;;;;;;;;;;;24.71;52.35;101004.90;107629;1251;109782;-62
2023/07/21 08:39:23;;;;;;;;;;;;;;;24.89;53.25;101006.02;107688;1251;108489;-62
2023/07/21 08:41:51;;;;;;;;;;;;;;;25.02;52.32;101009.77;107587;1251;95781;-61
2023/07/21 08:44:20;;;;;;;;;;;;;;;25.12;51.68;101009.09;107619;1251;95819;-61
2023/07/21 08:46:48;;;;;;;;;;;;;;;25.18;51.55;101010.25;107627;1254;109724;-63
2023/07/21 08:49:19;;;;;;;;;;;;;;;25.20;50.19;101014.17;107744;1256;109928;-62
2023/07/21 08:51:48;;;;;;;;;;;;;;;25.31;49.34;101017.77;107632;1251;107388;-62
2023/07/21 08:54:16;;;;;;;;;;;;;;;25.47;49.71;101027.24;107661;1251;95792;-61
2023/07/21 08:56:46;;;;;;;;;;;;;;;25.64;49.58;101026.77;107631;1252;95866;-62
2023/07/21 08:59:17;;;;;;;;;;;;;;;25.84;49.70;101034.77;107637;1251;108607;-61
2023/07/21 09:01:45;;;;;;;;;;;;;;;26.04;48.84;101036.23;107646;1251;109266;-63
2023/07/21 09:04:22;;;;;;;;;;;;;;;26.19;48.19;101033.13;107554;1251;107515;-61
2023/07/21 09:06:57;;;;;;;;;;;;;;;26.37;47.54;101042.73;107617;1254;95876;-65
2023/07/21 09:09:27;;;;;;;;;;;;;;;26.46;46.31;101037.80;107485;1251;95791;-66
2023/07/21 09:12:01;;;;;;;;;;;;;;;26.48;46.79;101034.26;107390;1254;109076;-63
2023/07/21 09:14:40;;;;;;;;;;;;;;;26.64;46.12;101036.98;107602;1254;109260;-60
2023/07/21 09:17:09;;;;;;;;;;;;;;;26.80;46.88;101024.05;107616;1251;107997;-61
2023/07/21 09:19:45;;;;;;;;;;;;;;;27.04;46.47;101024.82;107639;1251;95768;-62
2023/07/21 09:22:13;;;;;;;;;;;;;;;27.29;46.07;101024.23;107563;1256;96437;-63
2023/07/21 09:24:49;;;;;;;;;;;;;;;27.57;46.05;101018.35;107639;1251;109312;-62
2023/07/21 09:27:27;;;;;;;;;;;;;;;27.86;43.98;101018.98;107448;1254;110545;-64
2023/07/21 09:29:59;;;;;;;;;;;;;;;28.10;43.86;101016.08;107501;1254;108105;-62
2023/07/21 09:32:27;;;;;;;;;;;;;;;28.41;44.00;101014.48;107627;1254;95862;-63
2023/07/21 09:34:59;;;;;;;;;;;;;;;28.64;41.83;101018.20;107538;1252;95827;-65
2023/07/21 09:37:32;;;;;;;;;;;;;;;28.79;41.63;101013.47;107584;1251;109033;-63
2023/07/21 09:40:01;;;;;;;;;;;;;;;29.21;42.75;101013.22;107661;1251;107255;-62
2023/07/21 09:42:30;;;;;;;;;;;;;;;29.63;40.18;101013.89;107559;1253;107599;-63
2023/07/21 09:44:58;;;;;;;;;;;;;;;29.86;39.66;101011.05;107564;1252;95783;-63
2023/07/21 09:47:26;;;;;;;;;;;;;;;29.87;39.14;101008.30;107649;1251;95777;-63
2023/07/21 09:49:58;;;;;;;;;;;;;;;29.94;38.22;101009.61;107621;1251;108639;-63
2023/07/21 09:52:27;;;;;;;;;;;;;;;29.83;38.05;101011.80;107666;1251;110284;-61
2023/07/21 09:55:01;;;;;;;;;;;;;;;29.66;37.94;101014.83;107460;1251;108054;-64
2023/07/21 09:57:32;;;;;;;;;;;;;;;29.83;37.20;101012.41;107676;1256;95864;-61
2023/07/21 10:00:06;;;;;;;;;;;;;;;29.99;36.69;101012.61;107648;1251;95780;-63
2023/07/21 10:02:45;;;;;;;;;;;;;;;30.23;37.51;101006.59;107579;1254;108722;-63
2023/07/21 10:05:14;;;;;;;;;;;;;;;30.63;37.29;101004.40;107667;1251;109993;-62
2023/07/21 10:07:44;;;;;;;;;;;;;;;31.11;36.04;100998.42;107543;1254;108412;-63
2023/07/21 10:10:13;;;;;;;;;;;;;;;31.46;35.28;100998.27;107634;1256;95846;-64
2023/07/21 10:12:46;;;;;;;;;;;;;;;31.63;33.60;100995.98;107633;1254;95841;-62
2023/07/21 10:15:15;;;;;;;;;;;;;;;31.76;34.30;100988.48;107568;1254;109490;-61
2023/07/21 10:17:55;;;;;;;;;;;;;;;32.31;35.16;100985.69;107640;1253;109707;-61
2023/07/21 10:20:37;;;;;;;;;;;;;;;33.02;32.47;100979.98;107549;1255;107992;-64
2023/07/21 10:23:05;;;;;;;;;;;;;;;33.38;32.01;100982.60;107620;1251;96426;-63
2023/07/21 10:25:48;;;;;;;;;;;;;;;33.68;30.80;100982.86;107535;1251;95850;-62
2023/07/21 10:28:33;;;;;;;;;;;;;;;34.09;31.74;100986.09;107614;1251;109563;-62
2023/07/21 10:31:20;;;;;;;;;;;;;;;34.43;30.37;100979.59;107582;1255;109181;-62
2023/07/21 10:34:04;;;;;;;;;;;;;;;34.87;30.94;100972.76;107574;1254;107642;-61
2023/07/21 10:36:50;;;;;;;;;;;;;;;35.45;30.40;100969.41;107588;1251;95787;-61
2023/07/21 10:39:22;;;;;;;;;;;;;;;35.97;30.16;100961.09;107613;1250;96477;-61
2023/07/21 10:41:51;;;;;;;;;;;;;;;36.49;29.80;100957.67;107644;1254;108968;-62
2023/07/21 10:44:19;;;;;;;;;;;;;;;36.78;26.97;100951.54;107584;1254;109379;-60
2023/07/21 10:46:48;;;;;;;;;;;;;;;36.86;26.72;100948.94;107641;1251;106968;-61
2023/07/21 10:49:17;;;;;;;;;;;;;;;37.03;26.74;100952.10;107528;1255;95777;-62
2023/07/21 10:51:46;;;;;;;;;;;;;;;37.27;26.51;100949.18;107596;1253;95825;-61
2023/07/21 10:54:16;;;;;;;;;;;;;;;37.63;26.34;100945.15;107669;1256;109505;-62
2023/07/21 10:56:46;;;;;;;;;;;;;;;38.04;26.09;100945.15;107661;1254;108099;-62
2023/07/21 10:59:16;;;;;;;;;;;;;;;38.49;26.11;100939.70;107587;1256;107771;-61
2023/07/21 11:01:45;;;;;;;;;;;;;;;38.87;25.57;100932.94;107616;1254;95854;-61
2023/07/21 11:04:14;;;;;;;;;;;;;;;39.20;24.40;100941.40;107603;1251;95793;-61
2023/07/21 11:06:44;;;;;;;;;;;;;;;39.40;23.67;100944.10;107618;1254;108596;-61
2023/07/21 11:09:12;;;;;;;;;;;;;;;39.44;22.81;100942.22;107572;1251;111053;-62
2023/07/21 11:11:44;;;;;;;;;;;;;;;39.46;21.90;100949.23;107560;1251;107954;-62
2023/07/21 11:14:17;;;;;;;;;;;;;;;39.52;22.42;100943.98;107555;1251;95806;-62
2023/07/21 11:16:55;;;;;;;;;;;;;;;39.75;23.17;100946.96;107669;1251;95799;-60
2023/07/21 11:19:25;;;;;;;;;;;;;;;40.14;23.29;100940.52;107638;1256;109065;-62
2023/07/21 11:21:53;;;;;;;;;;;;;;;40.55;22.62;100932.58;107604;1251;109238;-62
2023/07/21 11:24:27;;;;;;;;;;;;;;;40.83;21.75;100928.94;107562;1251;108226;-61
2023/07/21 11:27:15;;;;;;;;;;;;;;;40.97;21.75;100928.30;107645;1251;95774;-61
2023/07/21 11:29:43;;;;;;;;;;;;;;;41.06;21.02;100927.57;107693;1254;95857;-62
2023/07/21 11:32:16;;;;;;;;;;;;;;;41.00;21.29;100922.55;107644;1251;108865;-64
2023/07/21 11:34:45;;;;;;;;;;;;;;;41.08;21.12;100924.52;107674;1251;108193;-61
2023/07/21 11:37:15;;;;;;;;;;;;;;;41.25;20.89;100920.83;107634;1251;108498;-60
2023/07/21 11:39:53;;;;;;;;;;;;;;;41.66;20.29;100917.88;107598;1254;95765;-62
2023/07/21 11:42:22;;;;;;;;;;;;;;;41.95;20.84;100915.73;107682;1254;96464;-62
2023/07/21 11:44:50;;;;;;;;;;;;;;;42.31;19.50;100916.08;107655;1254;109610;-65
2023/07/21 11:47:28;;;;;;;;;;;;;;;42.52;19.48;100911.94;107568;1254;109736;-62
2023/07/21 11:49:57;;;;;;;;;;;;;;;42.71;18.89;100904.95;107618;1251;108634;-66
2023/07/21 11:52:42;;;;;;;;;;;;;;;42.80;19.44;100903.48;107575;1256;95777;-64
2023/07/21 11:55:17;;;;;;;;;;;;;;;43.04;19.01;100901.55;107592;1251;95927;-63
2023/07/21 11:57:45;;;;;;;;;;;;;;;43.24;18.73;100904.08;107645;1255;108642;-61
2023/07/21 12:00:17;;;;;;;;;;;;;;;43.51;18.71;100898.15;107592;1256;108751;-67
2023/07/21 12:02:45;;;;;;;;;;;;;;;43.70;18.57;100891.88;107596;1251;106834;-63
2023/07/21 12:05:15;;;;;;;;;;;;;;;43.88;18.59;100889.21;107585;1256;96477;-61
2023/07/21 12:07:48;;;;;;;;;;;;;;;43.94;17.38;100888.16;107625;1251;96476;-64
2023/07/21 12:10:38;;;;;;;;;;;;;;;43.77;16.69;100889.15;107529;1257;109898;-65
2023/07/21 12:13:33;;;;;;;;;;;;;;;43.90;17.76;100885.70;107471;1254;109361;-67
2023/07/21 12:16:04;;;;;;;;;;;;;;;44.42;17.36;100889.39;107549;1254;108070;-62
2023/07/21 12:18:33;;;;;;;;;;;;;;;44.63;16.51;100887.73;107644;1251;96487;-64
2023/07/21 12:21:06;;;;;;;;;;;;;;;44.67;16.30;100890.10;107571;1251;96940;-63
2023/07/21 12:23:35;;;;;;;;;;;;;;;44.87;16.22;100883.55;107653;1254;110109;-64
2023/07/21 12:26:03;;;;;;;;;;;;;;;44.99;15.97;100882.37;107603;1256;110071;-63
2023/07/21 12:28:31;;;;;;;;;;;;;;;44.70;15.76;100880.27;107535;1255;108255;-63
2023/07/21 12:31:00;;;;;;;;;;;;;;;44.70;16.00;100874.36;107624;1251;96467;-62
2023/07/21 12:33:28;;;;;;;;;;;;;;;44.93;15.79;100874.10;107621;1256;97046;-66
2023/07/21 12:35:57;;;;;;;;;;;;;;;45.24;16.92;100867.42;107545;1251;110347;-62
2023/07/21 12:38:26;;;;;;;;;;;;;;;45.49;15.93;100868.70;107643;1256;109914;-63
2023/07/21 12:40:54;;;;;;;;;;;;;;;45.46;15.59;100868.41;107625;1254;107620;-61
2023/07/21 12:43:22;;;;;;;;;;;;;;;45.39;17.51;100864.19;107543;1251;97112;-62